createdAt,value
2019-03-05T00:01:39.482Z,2.50
2019-03-05T00:06:39.009Z,2.17
2019-03-05T00:11:38.654Z,2.33
2019-03-05T00:16:38.178Z,2.90
2019-03-05T00:21:38.670Z,2.67
2019-03-05T00:26:38.211Z,3.00
2019-03-05T00:31:38.833Z,3.60
2019-03-05T00:36:45.022Z,3.43
2019-03-05T00:42:21.063Z,4.30
2019-03-05T00:47:41.403Z,4.13
2019-03-05T00:53:18.213Z,4.63
2019-03-05T00:58:51.218Z,4.63
2019-03-05T01:04:15.938Z,3.80
2019-03-05T01:09:19.390Z,4.97
2019-03-05T01:14:19.344Z,4.23
2019-03-05T01:19:18.872Z,3.90
2019-03-05T01:24:18.478Z,4.33
2019-03-05T01:29:17.993Z,3.63
2019-03-05T01:34:22.490Z,4.00
2019-03-05T01:39:27.631Z,3.60
2019-03-05T01:44:27.230Z,3.33
2019-03-05T01:49:26.745Z,2.90
2019-03-05T01:54:26.357Z,2.60
2019-03-05T01:59:25.895Z,2.37
2019-03-05T02:04:25.504Z,2.70
2019-03-05T02:09:25.115Z,3.10
2019-03-05T02:14:24.860Z,2.97
2019-03-05T02:19:41.425Z,4.10
2019-03-05T02:25:17.327Z,2.80
2019-03-05T02:30:43.401Z,3.07
2019-03-05T02:36:05.071Z,2.67
2019-03-05T02:41:32.650Z,2.87
2019-03-05T02:46:59.905Z,3.00
2019-03-05T02:52:09.062Z,3.00
2019-03-05T02:57:10.910Z,2.83
2019-03-05T03:02:29.461Z,2.97
2019-03-05T03:07:29.435Z,2.73
2019-03-05T03:12:28.970Z,2.63
2019-03-05T03:17:28.508Z,3.27
2019-03-05T03:22:28.053Z,3.00
2019-03-05T03:27:27.620Z,2.97
2019-03-05T03:32:27.219Z,2.90
2019-03-05T03:37:26.748Z,2.77
2019-03-05T03:42:27.489Z,2.03
2019-03-05T03:47:27.085Z,2.43
2019-03-05T03:52:26.690Z,2.00
2019-03-05T03:57:26.228Z,1.80
2019-03-05T04:02:25.849Z,2.33
2019-03-05T04:07:25.541Z,2.10
2019-03-05T04:12:25.111Z,1.63
2019-03-05T04:17:24.739Z,1.77
2019-03-05T04:22:24.277Z,2.00
2019-03-05T04:27:24.877Z,1.80
2019-03-05T04:32:24.410Z,2.30
2019-03-05T04:37:23.942Z,2.63
2019-03-05T04:42:23.484Z,1.80
2019-03-05T04:47:23.022Z,3.00
2019-03-05T04:52:26.405Z,3.47
2019-03-05T04:57:26.437Z,2.23
2019-03-05T05:02:26.021Z,2.43
2019-03-05T05:07:25.549Z,2.20
2019-03-05T05:12:25.105Z,2.93
2019-03-05T05:17:24.638Z,2.50
2019-03-05T05:22:24.177Z,3.50
2019-03-05T05:27:24.784Z,4.23
2019-03-05T05:32:24.320Z,4.20
2019-03-05T05:37:23.940Z,2.93
2019-03-05T05:42:23.469Z,2.93
2019-03-05T05:47:23.027Z,2.40
2019-03-05T05:52:22.551Z,3.97
2019-03-05T05:57:22.090Z,4.23
2019-03-05T06:02:21.631Z,5.03
2019-03-05T06:07:21.169Z,4.00
2019-03-05T06:12:20.710Z,3.27
2019-03-05T06:17:21.309Z,4.03
2019-03-05T06:22:20.934Z,4.80
2019-03-05T06:27:21.393Z,4.70
2019-03-05T06:32:21.051Z,3.67
2019-03-05T06:37:20.627Z,4.20
2019-03-05T06:42:20.188Z,3.83
2019-03-05T06:47:19.712Z,3.90
2019-03-05T06:52:19.253Z,5.03
2019-03-05T06:57:18.826Z,3.97
2019-03-05T07:02:18.499Z,3.97
2019-03-05T07:07:18.062Z,4.10
2019-03-05T07:12:56.481Z,3.47
2019-03-05T07:18:03.996Z,4.20
2019-03-05T07:23:17.600Z,2.50
2019-03-05T07:28:21.213Z,3.40
2019-03-05T07:33:21.697Z,4.27
2019-03-05T07:38:21.246Z,3.60
2019-03-05T07:43:20.791Z,3.40
2019-03-05T07:48:20.330Z,5.00
2019-03-05T07:53:19.862Z,4.27
2019-03-05T07:58:19.414Z,4.03
2019-03-05T08:03:21.213Z,3.90
2019-03-05T08:08:57.426Z,3.37
2019-03-05T08:14:32.587Z,3.70
2019-03-05T08:19:32.189Z,2.50
2019-03-05T08:24:31.750Z,2.97
2019-03-05T08:29:31.287Z,2.47
2019-03-05T08:34:30.838Z,5.03
2019-03-05T08:39:30.462Z,2.70
2019-03-05T08:44:30.023Z,2.60
2019-03-05T08:49:29.571Z,3.23
2019-03-05T08:54:30.087Z,3.00
2019-03-05T08:59:29.617Z,1.60
2019-03-05T09:04:29.174Z,2.33
2019-03-05T09:09:30.828Z,2.83
2019-03-05T09:14:34.534Z,2.37
2019-03-05T09:19:33.926Z,2.00
2019-03-05T09:24:33.563Z,2.10
2019-03-05T09:29:33.113Z,2.53
2019-03-05T09:34:32.643Z,2.53
2019-03-05T09:39:32.186Z,2.70
2019-03-05T09:44:31.713Z,1.73
2019-03-05T09:49:31.254Z,2.30
2019-03-05T09:54:30.796Z,2.60
2019-03-05T09:59:30.326Z,2.67
2019-03-05T10:04:29.871Z,4.03
2019-03-05T10:09:29.399Z,1.73
2019-03-05T10:14:28.958Z,2.10
2019-03-05T10:19:28.683Z,2.07
2019-03-05T10:24:28.229Z,2.27
2019-03-05T10:29:27.858Z,2.07
2019-03-05T10:34:27.386Z,2.40
2019-03-05T10:39:30.970Z,2.47
2019-03-05T10:44:28.771Z,2.77
2019-03-05T10:49:28.396Z,2.20
2019-03-05T10:54:27.938Z,2.57
2019-03-05T10:59:27.483Z,2.73
2019-03-05T11:04:27.459Z,2.23
2019-03-05T11:09:27.006Z,3.03
2019-03-05T11:14:26.557Z,2.10
2019-03-05T11:19:27.234Z,2.47
2019-03-05T11:24:27.830Z,2.77
2019-03-05T11:29:27.358Z,2.27
2019-03-05T11:34:26.942Z,2.50
2019-03-05T11:39:27.486Z,2.50
2019-03-05T11:44:27.020Z,1.97
2019-03-05T11:49:26.562Z,2.90
2019-03-05T11:54:26.086Z,2.30
2019-03-05T11:59:25.725Z,2.07
2019-03-05T12:04:25.265Z,2.00
2019-03-05T12:09:24.884Z,1.80
2019-03-05T12:14:24.410Z,2.40
2019-03-05T12:19:23.973Z,1.23
2019-03-05T12:24:24.203Z,3.03
2019-03-05T12:29:24.799Z,3.03
2019-03-05T12:34:24.375Z,2.20
2019-03-05T12:39:23.930Z,2.80
2019-03-05T12:44:23.465Z,2.40
2019-03-05T12:49:23.001Z,2.50
2019-03-05T12:54:22.550Z,2.17
2019-03-05T12:59:22.175Z,2.40
2019-03-05T13:04:21.738Z,1.70
2019-03-05T13:09:21.298Z,2.40
2019-03-05T13:14:20.850Z,2.73
2019-03-05T13:19:20.399Z,3.03
2019-03-05T13:24:19.926Z,2.20
2019-03-05T13:29:20.584Z,2.60
2019-03-05T13:34:20.362Z,2.53
2019-03-05T13:39:22.222Z,2.70
2019-03-05T13:44:34.010Z,2.07
2019-03-05T13:50:09.383Z,3.40
2019-03-05T13:55:30.018Z,2.27
2019-03-05T14:00:29.641Z,2.80
2019-03-05T14:05:55.989Z,2.57
2019-03-05T14:10:55.620Z,2.57
2019-03-05T14:15:55.276Z,2.63
2019-03-05T14:20:54.913Z,2.90
2019-03-05T14:25:54.526Z,2.80
2019-03-05T14:30:54.087Z,2.33
2019-03-05T14:35:53.775Z,1.67
2019-03-05T14:40:53.378Z,1.57
2019-03-05T14:45:52.990Z,2.20
2019-03-05T14:50:52.752Z,1.50
2019-03-05T14:55:54.434Z,1.40
2019-03-05T15:00:55.446Z,1.50
2019-03-05T15:05:55.230Z,2.30
2019-03-05T15:10:54.947Z,1.97
2019-03-05T15:15:54.680Z,2.20
2019-03-05T15:20:54.335Z,2.03
2019-03-05T15:25:53.953Z,2.00
2019-03-05T15:30:53.578Z,1.97
2019-03-05T15:35:53.217Z,2.23
2019-03-05T15:40:52.782Z,2.60
2019-03-05T15:45:52.442Z,2.80
2019-03-05T15:50:52.050Z,2.13
2019-03-05T15:55:51.706Z,2.10
2019-03-05T16:00:51.348Z,1.40
2019-03-05T16:05:53.903Z,1.70
2019-03-05T16:10:54.671Z,1.67
2019-03-05T16:15:53.649Z,2.20
2019-03-05T16:20:53.266Z,2.13
2019-03-05T16:25:52.866Z,1.60
2019-03-05T16:31:26.640Z,1.50
2019-03-05T16:36:42.631Z,1.40
2019-03-05T16:42:13.200Z,1.40
2019-03-05T16:47:34.713Z,1.40
2019-03-05T16:52:45.709Z,1.37
2019-03-05T16:57:52.801Z,1.23
2019-03-05T17:03:10.505Z,1.90
2019-03-05T17:08:28.826Z,1.50
2019-03-05T17:13:28.534Z,1.30
2019-03-05T17:18:28.142Z,1.53
2019-03-05T17:23:27.758Z,1.20
2019-03-05T17:28:27.402Z,1.70
2019-03-05T17:33:27.719Z,1.47
2019-03-05T17:38:27.323Z,1.40
2019-03-05T17:43:26.930Z,1.40
2019-03-05T17:48:26.718Z,2.30
2019-03-05T17:53:26.364Z,2.20
2019-03-05T17:58:26.147Z,2.60
2019-03-05T18:03:25.679Z,2.00
2019-03-05T18:08:25.518Z,1.97
2019-03-05T18:13:25.246Z,2.50
2019-03-05T18:18:24.862Z,2.10
2019-03-05T18:23:24.661Z,3.10
2019-03-05T18:28:24.193Z,2.23
2019-03-05T18:33:24.078Z,2.70
2019-03-05T18:38:23.606Z,2.70
2019-03-05T18:43:23.318Z,2.47
2019-03-05T18:48:23.048Z,3.27
2019-03-05T18:53:22.577Z,2.57
2019-03-05T18:58:23.030Z,2.77
2019-03-05T19:03:22.621Z,2.90
2019-03-05T19:08:22.145Z,2.90
2019-03-05T19:13:21.946Z,2.73
2019-03-05T19:18:21.515Z,3.67
2019-03-05T19:23:21.132Z,4.10
2019-03-05T19:28:20.674Z,5.13
2019-03-05T19:33:20.222Z,4.30
2019-03-05T19:38:19.752Z,5.77
2019-03-05T19:43:19.314Z,4.77
2019-03-05T19:48:19.109Z,4.90
2019-03-05T19:53:18.666Z,4.87
2019-03-05T19:58:18.233Z,4.77
2019-03-05T20:03:20.010Z,5.60
2019-03-05T20:08:20.108Z,5.07
2019-03-05T20:13:20.128Z,5.07
2019-03-05T20:18:19.678Z,5.13
2019-03-05T20:23:19.228Z,4.50
2019-03-05T20:28:18.761Z,5.30
2019-03-05T20:33:18.294Z,5.83
2019-03-05T20:38:18.291Z,6.33
2019-03-05T20:43:17.986Z,5.83
2019-03-05T20:48:19.042Z,5.70
2019-03-05T20:53:18.847Z,5.67
2019-03-05T20:58:18.456Z,4.90
2019-03-05T21:03:18.662Z,5.20
2019-03-05T21:08:18.335Z,4.77
2019-03-05T21:13:17.881Z,4.70
2019-03-05T21:18:19.420Z,4.93
2019-03-05T21:23:18.793Z,4.47
2019-03-05T21:28:18.326Z,4.50
2019-03-05T21:33:17.853Z,5.17
2019-03-05T21:38:17.466Z,4.50
2019-03-05T21:43:16.994Z,6.07
2019-03-05T21:48:16.911Z,4.97
2019-03-05T21:53:16.567Z,5.07
2019-03-05T21:58:16.102Z,5.20
2019-03-05T22:03:15.747Z,5.10
2019-03-05T22:08:15.367Z,6.00
2019-03-05T22:13:15.115Z,4.57
2019-03-05T22:18:14.657Z,5.67
2019-03-05T22:23:14.591Z,5.67
2019-03-05T22:28:14.123Z,5.10
2019-03-05T22:33:13.661Z,5.87
2019-03-05T22:38:13.210Z,7.33
2019-03-05T22:43:12.747Z,5.17
2019-03-05T22:48:12.307Z,4.73
2019-03-05T22:53:11.854Z,5.43
2019-03-05T22:58:11.757Z,5.67
2019-03-05T23:03:12.282Z,6.10
2019-03-05T23:08:11.954Z,5.83
2019-03-05T23:13:13.817Z,5.33
2019-03-05T23:18:13.350Z,6.10
2019-03-05T23:23:13.066Z,5.10
2019-03-05T23:28:12.674Z,6.13
2019-03-05T23:33:12.578Z,6.00
2019-03-05T23:38:12.286Z,6.10
2019-03-05T23:43:11.902Z,6.23
2019-03-05T23:48:11.433Z,5.37
2019-03-05T23:53:11.005Z,6.73
2019-03-05T23:58:10.554Z,7.13
